EGLM weather

White Waltham Airfield
Maidenhead, England, United Kingdom

Public forecast

Using degrees Celsius for public forecast. Weather courtesy of forecast.io.

Closest aviation weather report (METAR) to White Waltham Airfield

Closest report is London Heathrow Airport, 11.8 nm (21.9 km) E. Retrieved 2020/02/18 21:20 UTC (0 seconds ago):

EGLL 182120Z AUTO 27009KT 9999 -RA SCT024/// //////TCU 05/03 Q1015 NOSIG

Closest aviation forecast (TAF) to White Waltham Airfield

Closest forecast is London Heathrow Airport, 11.8 nm (21.9 km) E. Retrieved 2020/02/18 18:00 UTC (3 hours ago):

TAF EGLL 181658Z 1818/1924 24015G25KT 9999 FEW030 TEMPO 1818/1822 6000 SHRA PROB30 TEMPO 1818/1821 26022G35KT 3000 +SHRA SHGS BKN014CB BECMG 1821/1824 28012KT BECMG 1909/1912 22010KT TEMPO 1912/1920 6000 RA BKN012 PROB30 TEMPO 1920/1924 22015G25KT 8000 -RA BKN014